sensor_id;sensor_type;location;lat;lon;timestamp;temperature;humidity
55634;DHT22;41504;53.162;6.788;2023-07-31T00:01:38;16.40;95.70
55634;DHT22;41504;53.162;6.788;2023-07-31T00:04:04;16.30;95.70
55634;DHT22;41504;53.162;6.788;2023-07-31T00:06:30;16.30;95.70
55634;DHT22;41504;53.162;6.788;2023-07-31T00:08:56;16.30;95.80
55634;DHT22;41504;53.162;6.788;2023-07-31T00:11:21;16.30;95.80
55634;DHT22;41504;53.162;6.788;2023-07-31T00:13:47;16.30;95.80
55634;DHT22;41504;53.162;6.788;2023-07-31T00:16:13;16.20;95.90
55634;DHT22;41504;53.162;6.788;2023-07-31T00:18:39;16.20;96.00
55634;DHT22;41504;53.162;6.788;2023-07-31T00:21:04;16.20;96.10
55634;DHT22;41504;53.162;6.788;2023-07-31T00:23:30;16.20;96.00
55634;DHT22;41504;53.162;6.788;2023-07-31T00:25:56;16.20;96.10
55634;DHT22;41504;53.162;6.788;2023-07-31T00:28:21;16.10;96.10
55634;DHT22;41504;53.162;6.788;2023-07-31T00:30:47;16.10;96.20
55634;DHT22;41504;53.162;6.788;2023-07-31T00:33:13;16.10;96.20
55634;DHT22;41504;53.162;6.788;2023-07-31T00:35:38;16.10;96.30
55634;DHT22;41504;53.162;6.788;2023-07-31T00:38:04;16.10;96.30
55634;DHT22;41504;53.162;6.788;2023-07-31T00:40:34;16.00;96.40
55634;DHT22;41504;53.162;6.788;2023-07-31T00:43:01;16.10;96.40
55634;DHT22;41504;53.162;6.788;2023-07-31T00:45:26;16.00;96.50
55634;DHT22;41504;53.162;6.788;2023-07-31T00:47:54;16.00;96.50
55634;DHT22;41504;53.162;6.788;2023-07-31T00:50:21;15.90;96.60
55634;DHT22;41504;53.162;6.788;2023-07-31T00:52:47;15.90;96.60
55634;DHT22;41504;53.162;6.788;2023-07-31T00:55:13;15.90;96.70
55634;DHT22;41504;53.162;6.788;2023-07-31T00:57:41;15.90;96.80
55634;DHT22;41504;53.162;6.788;2023-07-31T01:00:07;15.90;96.80
55634;DHT22;41504;53.162;6.788;2023-07-31T01:02:33;15.90;96.80
55634;DHT22;41504;53.162;6.788;2023-07-31T01:05:01;15.90;96.90
55634;DHT22;41504;53.162;6.788;2023-07-31T01:07:45;15.90;97.00
55634;DHT22;41504;53.162;6.788;2023-07-31T01:10:26;15.90;97.00
55634;DHT22;41504;53.162;6.788;2023-07-31T01:12:53;15.80;97.10
55634;DHT22;41504;53.162;6.788;2023-07-31T01:15:21;15.80;97.10
55634;DHT22;41504;53.162;6.788;2023-07-31T01:17:46;15.80;97.20
55634;DHT22;41504;53.162;6.788;2023-07-31T01:20:21;15.80;97.20
55634;DHT22;41504;53.162;6.788;2023-07-31T01:26:21;15.80;97.20
55634;DHT22;41504;53.162;6.788;2023-07-31T01:31:26;15.80;97.30
55634;DHT22;41504;53.162;6.788;2023-07-31T01:33:57;15.80;97.30
55634;DHT22;41504;53.162;6.788;2023-07-31T01:36:23;15.80;97.40
55634;DHT22;41504;53.162;6.788;2023-07-31T01:38:49;15.80;97.40
55634;DHT22;41504;53.162;6.788;2023-07-31T01:41:18;15.80;97.50
55634;DHT22;41504;53.162;6.788;2023-07-31T01:43:45;15.80;97.50
55634;DHT22;41504;53.162;6.788;2023-07-31T01:46:11;15.80;97.50
55634;DHT22;41504;53.162;6.788;2023-07-31T01:48:37;15.80;97.60
55634;DHT22;41504;53.162;6.788;2023-07-31T01:51:03;15.80;97.60
55634;DHT22;41504;53.162;6.788;2023-07-31T01:53:30;15.80;97.60
55634;DHT22;41504;53.162;6.788;2023-07-31T01:55:56;15.80;97.60
55634;DHT22;41504;53.162;6.788;2023-07-31T01:58:22;15.80;97.70
55634;DHT22;41504;53.162;6.788;2023-07-31T02:00:48;15.80;97.70
55634;DHT22;41504;53.162;6.788;2023-07-31T02:03:14;15.80;97.80
55634;DHT22;41504;53.162;6.788;2023-07-31T02:05:46;15.80;97.80
55634;DHT22;41504;53.162;6.788;2023-07-31T02:08:13;15.80;97.80
55634;DHT22;41504;53.162;6.788;2023-07-31T02:10:39;15.80;97.90
55634;DHT22;41504;53.162;6.788;2023-07-31T02:13:05;15.70;97.90
55634;DHT22;41504;53.162;6.788;2023-07-31T02:15:30;15.70;97.90
55634;DHT22;41504;53.162;6.788;2023-07-31T02:17:56;15.70;97.90
55634;DHT22;41504;53.162;6.788;2023-07-31T02:20:22;15.70;98.00
55634;DHT22;41504;53.162;6.788;2023-07-31T02:22:48;15.70;98.00
55634;DHT22;41504;53.162;6.788;2023-07-31T02:25:14;15.70;98.00
55634;DHT22;41504;53.162;6.788;2023-07-31T02:27:40;15.70;98.00
55634;DHT22;41504;53.162;6.788;2023-07-31T02:30:09;15.70;98.10
55634;DHT22;41504;53.162;6.788;2023-07-31T02:32:35;15.70;98.10
55634;DHT22;41504;53.162;6.788;2023-07-31T02:35:01;15.70;98.10
55634;DHT22;41504;53.162;6.788;2023-07-31T02:37:26;15.70;98.20
55634;DHT22;41504;53.162;6.788;2023-07-31T02:39:54;15.70;98.40
55634;DHT22;41504;53.162;6.788;2023-07-31T02:42:20;15.60;98.20
55634;DHT22;41504;53.162;6.788;2023-07-31T02:44:46;15.60;98.30
55634;DHT22;41504;53.162;6.788;2023-07-31T02:47:11;15.60;98.30
55634;DHT22;41504;53.162;6.788;2023-07-31T02:49:37;15.60;98.30
55634;DHT22;41504;53.162;6.788;2023-07-31T02:52:03;15.60;98.30
55634;DHT22;41504;53.162;6.788;2023-07-31T02:54:29;15.60;98.30
55634;DHT22;41504;53.162;6.788;2023-07-31T02:56:55;15.60;98.40
55634;DHT22;41504;53.162;6.788;2023-07-31T02:59:21;15.60;98.40
55634;DHT22;41504;53.162;6.788;2023-07-31T03:01:47;15.60;98.40
55634;DHT22;41504;53.162;6.788;2023-07-31T03:04:12;15.60;98.40
55634;DHT22;41504;53.162;6.788;2023-07-31T03:06:38;15.60;98.40
55634;DHT22;41504;53.162;6.788;2023-07-31T03:09:04;15.60;98.40
55634;DHT22;41504;53.162;6.788;2023-07-31T03:11:29;15.60;98.40
55634;DHT22;41504;53.162;6.788;2023-07-31T03:13:55;15.60;98.50
55634;DHT22;41504;53.162;6.788;2023-07-31T03:16:21;15.60;98.50
55634;DHT22;41504;53.162;6.788;2023-07-31T03:18:47;15.60;98.60
55634;DHT22;41504;53.162;6.788;2023-07-31T03:21:13;15.60;98.60
55634;DHT22;41504;53.162;6.788;2023-07-31T03:23:39;15.60;98.60
55634;DHT22;41504;53.162;6.788;2023-07-31T03:26:07;15.60;98.70
55634;DHT22;41504;53.162;6.788;2023-07-31T03:28:33;15.60;98.70
55634;DHT22;41504;53.162;6.788;2023-07-31T03:30:59;15.60;98.70
55634;DHT22;41504;53.162;6.788;2023-07-31T03:33:25;15.60;98.70
55634;DHT22;41504;53.162;6.788;2023-07-31T03:35:51;15.60;98.70
55634;DHT22;41504;53.162;6.788;2023-07-31T03:38:18;15.60;98.80
55634;DHT22;41504;53.162;6.788;2023-07-31T03:40:43;15.60;98.80
55634;DHT22;41504;53.162;6.788;2023-07-31T03:43:09;15.60;98.90
55634;DHT22;41504;53.162;6.788;2023-07-31T03:45:35;15.60;98.90
55634;DHT22;41504;53.162;6.788;2023-07-31T03:48:01;15.60;98.90
55634;DHT22;41504;53.162;6.788;2023-07-31T03:50:27;15.60;98.90
55634;DHT22;41504;53.162;6.788;2023-07-31T03:52:52;15.60;98.90
55634;DHT22;41504;53.162;6.788;2023-07-31T03:55:18;15.60;99.00
55634;DHT22;41504;53.162;6.788;2023-07-31T03:57:44;15.60;99.00
55634;DHT22;41504;53.162;6.788;2023-07-31T04:00:10;15.60;99.00
55634;DHT22;41504;53.162;6.788;2023-07-31T04:02:39;15.70;99.00
55634;DHT22;41504;53.162;6.788;2023-07-31T04:05:04;15.60;99.00
55634;DHT22;41504;53.162;6.788;2023-07-31T04:07:30;15.70;99.10
55634;DHT22;41504;53.162;6.788;2023-07-31T04:09:57;15.60;99.00
55634;DHT22;41504;53.162;6.788;2023-07-31T04:12:23;15.60;99.10
55634;DHT22;41504;53.162;6.788;2023-07-31T04:14:49;15.60;99.10
55634;DHT22;41504;53.162;6.788;2023-07-31T04:17:17;15.60;99.20
55634;DHT22;41504;53.162;6.788;2023-07-31T04:19:42;15.60;99.20
55634;DHT22;41504;53.162;6.788;2023-07-31T04:22:08;15.60;99.20
55634;DHT22;41504;53.162;6.788;2023-07-31T04:24:34;15.70;99.20
55634;DHT22;41504;53.162;6.788;2023-07-31T04:26:59;15.70;99.20
55634;DHT22;41504;53.162;6.788;2023-07-31T04:29:25;15.70;99.30
55634;DHT22;41504;53.162;6.788;2023-07-31T04:31:51;15.70;99.30
55634;DHT22;41504;53.162;6.788;2023-07-31T04:34:17;15.70;99.40
55634;DHT22;41504;53.162;6.788;2023-07-31T04:36:43;15.70;99.30
55634;DHT22;41504;53.162;6.788;2023-07-31T04:39:08;15.70;99.30
55634;DHT22;41504;53.162;6.788;2023-07-31T04:41:34;15.70;99.30
55634;DHT22;41504;53.162;6.788;2023-07-31T04:44:00;15.80;99.40
55634;DHT22;41504;53.162;6.788;2023-07-31T04:46:25;15.80;99.30
55634;DHT22;41504;53.162;6.788;2023-07-31T04:48:51;15.80;99.30
55634;DHT22;41504;53.162;6.788;2023-07-31T04:51:17;15.70;99.40
55634;DHT22;41504;53.162;6.788;2023-07-31T04:53:42;15.80;99.40
55634;DHT22;41504;53.162;6.788;2023-07-31T04:56:08;15.80;99.40
55634;DHT22;41504;53.162;6.788;2023-07-31T04:58:34;15.80;99.40
55634;DHT22;41504;53.162;6.788;2023-07-31T05:01:02;15.80;99.40
55634;DHT22;41504;53.162;6.788;2023-07-31T05:03:28;15.90;99.40
55634;DHT22;41504;53.162;6.788;2023-07-31T05:05:54;15.90;99.40
55634;DHT22;41504;53.162;6.788;2023-07-31T05:08:19;15.90;99.50
55634;DHT22;41504;53.162;6.788;2023-07-31T05:10:45;15.90;99.50
55634;DHT22;41504;53.162;6.788;2023-07-31T05:13:11;15.80;99.50
55634;DHT22;41504;53.162;6.788;2023-07-31T05:15:41;15.80;99.50
55634;DHT22;41504;53.162;6.788;2023-07-31T05:18:07;15.90;99.50
55634;DHT22;41504;53.162;6.788;2023-07-31T05:20:33;15.90;99.50
55634;DHT22;41504;53.162;6.788;2023-07-31T05:22:58;15.90;99.70
55634;DHT22;41504;53.162;6.788;2023-07-31T05:25:24;15.90;99.60
55634;DHT22;41504;53.162;6.788;2023-07-31T05:27:50;15.90;99.60
55634;DHT22;41504;53.162;6.788;2023-07-31T05:30:16;15.80;99.60
55634;DHT22;41504;53.162;6.788;2023-07-31T05:32:41;15.90;99.60
55634;DHT22;41504;53.162;6.788;2023-07-31T05:35:07;15.90;99.60
55634;DHT22;41504;53.162;6.788;2023-07-31T05:37:33;15.90;99.60
55634;DHT22;41504;53.162;6.788;2023-07-31T05:39:59;15.90;99.60
55634;DHT22;41504;53.162;6.788;2023-07-31T05:42:24;15.90;99.60
55634;DHT22;41504;53.162;6.788;2023-07-31T05:44:50;15.90;99.60
55634;DHT22;41504;53.162;6.788;2023-07-31T05:47:16;15.90;99.60
55634;DHT22;41504;53.162;6.788;2023-07-31T05:49:42;15.90;99.60
55634;DHT22;41504;53.162;6.788;2023-07-31T05:52:07;15.90;99.60
55634;DHT22;41504;53.162;6.788;2023-07-31T05:54:33;15.90;99.60
55634;DHT22;41504;53.162;6.788;2023-07-31T05:56:59;16.00;99.70
55634;DHT22;41504;53.162;6.788;2023-07-31T05:59:25;15.90;99.70
55634;DHT22;41504;53.162;6.788;2023-07-31T06:01:50;16.00;99.70
55634;DHT22;41504;53.162;6.788;2023-07-31T06:04:16;15.90;99.70
55634;DHT22;41504;53.162;6.788;2023-07-31T06:06:45;16.00;99.70
55634;DHT22;41504;53.162;6.788;2023-07-31T06:09:11;16.00;99.70
55634;DHT22;41504;53.162;6.788;2023-07-31T06:11:37;16.00;99.80
55634;DHT22;41504;53.162;6.788;2023-07-31T06:14:03;16.00;99.80
55634;DHT22;41504;53.162;6.788;2023-07-31T06:16:28;16.00;99.80
55634;DHT22;41504;53.162;6.788;2023-07-31T06:18:54;16.00;99.80
55634;DHT22;41504;53.162;6.788;2023-07-31T06:21:20;16.10;99.80
55634;DHT22;41504;53.162;6.788;2023-07-31T06:23:45;16.10;99.90
55634;DHT22;41504;53.162;6.788;2023-07-31T06:26:11;16.10;99.90
55634;DHT22;41504;53.162;6.788;2023-07-31T06:28:41;16.10;99.90
55634;DHT22;41504;53.162;6.788;2023-07-31T06:31:07;16.10;99.90
55634;DHT22;41504;53.162;6.788;2023-07-31T06:33:32;16.10;99.90
55634;DHT22;41504;53.162;6.788;2023-07-31T06:35:58;16.10;99.90
55634;DHT22;41504;53.162;6.788;2023-07-31T06:38:25;16.20;99.90
55634;DHT22;41504;53.162;6.788;2023-07-31T06:40:51;16.20;99.90
55634;DHT22;41504;53.162;6.788;2023-07-31T06:43:17;16.30;99.90
55634;DHT22;41504;53.162;6.788;2023-07-31T06:45:42;16.30;99.90
55634;DHT22;41504;53.162;6.788;2023-07-31T06:48:08;16.40;99.90
55634;DHT22;41504;53.162;6.788;2023-07-31T06:50:34;16.40;99.90
55634;DHT22;41504;53.162;6.788;2023-07-31T06:53:00;16.50;99.90
55634;DHT22;41504;53.162;6.788;2023-07-31T06:55:26;16.60;99.90
55634;DHT22;41504;53.162;6.788;2023-07-31T06:57:53;16.70;99.90
55634;DHT22;41504;53.162;6.788;2023-07-31T07:00:21;16.70;99.90
55634;DHT22;41504;53.162;6.788;2023-07-31T07:02:48;16.80;99.90
55634;DHT22;41504;53.162;6.788;2023-07-31T07:05:15;16.90;99.90
55634;DHT22;41504;53.162;6.788;2023-07-31T07:07:41;17.00;99.90
55634;DHT22;41504;53.162;6.788;2023-07-31T07:10:07;17.00;99.90
55634;DHT22;41504;53.162;6.788;2023-07-31T07:12:33;17.00;99.90
55634;DHT22;41504;53.162;6.788;2023-07-31T07:15:00;17.10;99.90
55634;DHT22;41504;53.162;6.788;2023-07-31T07:17:27;17.10;99.90
55634;DHT22;41504;53.162;6.788;2023-07-31T07:19:53;17.10;99.80
55634;DHT22;41504;53.162;6.788;2023-07-31T07:22:19;17.10;99.80
55634;DHT22;41504;53.162;6.788;2023-07-31T07:24:44;17.10;99.80
55634;DHT22;41504;53.162;6.788;2023-07-31T07:27:10;17.10;99.80
55634;DHT22;41504;53.162;6.788;2023-07-31T07:29:39;17.10;99.80
55634;DHT22;41504;53.162;6.788;2023-07-31T07:32:08;17.10;99.80
55634;DHT22;41504;53.162;6.788;2023-07-31T07:34:34;17.10;99.80
55634;DHT22;41504;53.162;6.788;2023-07-31T07:37:02;17.10;99.80
55634;DHT22;41504;53.162;6.788;2023-07-31T07:39:28;17.10;99.90
55634;DHT22;41504;53.162;6.788;2023-07-31T07:41:54;17.10;99.90
55634;DHT22;41504;53.162;6.788;2023-07-31T07:44:20;17.10;99.90
55634;DHT22;41504;53.162;6.788;2023-07-31T07:46:45;17.00;99.90
55634;DHT22;41504;53.162;6.788;2023-07-31T07:49:11;17.00;99.90
55634;DHT22;41504;53.162;6.788;2023-07-31T07:51:37;17.00;99.90
55634;DHT22;41504;53.162;6.788;2023-07-31T07:54:02;17.00;99.90
55634;DHT22;41504;53.162;6.788;2023-07-31T07:56:32;17.00;99.90
55634;DHT22;41504;53.162;6.788;2023-07-31T07:58:58;17.00;99.90
55634;DHT22;41504;53.162;6.788;2023-07-31T08:01:24;17.00;99.90
55634;DHT22;41504;53.162;6.788;2023-07-31T08:03:50;16.90;99.90
55634;DHT22;41504;53.162;6.788;2023-07-31T08:06:16;16.90;99.90
55634;DHT22;41504;53.162;6.788;2023-07-31T08:08:42;16.90;99.90
55634;DHT22;41504;53.162;6.788;2023-07-31T08:13:59;16.90;99.90
55634;DHT22;41504;53.162;6.788;2023-07-31T08:16:25;16.80;99.90
55634;DHT22;41504;53.162;6.788;2023-07-31T08:18:51;16.90;99.90
55634;DHT22;41504;53.162;6.788;2023-07-31T08:21:17;16.80;99.90
55634;DHT22;41504;53.162;6.788;2023-07-31T08:23:42;16.80;99.90
55634;DHT22;41504;53.162;6.788;2023-07-31T08:26:09;16.80;99.90
55634;DHT22;41504;53.162;6.788;2023-07-31T08:28:39;16.80;99.90
55634;DHT22;41504;53.162;6.788;2023-07-31T08:31:05;16.80;99.90
55634;DHT22;41504;53.162;6.788;2023-07-31T08:33:31;16.80;99.90
55634;DHT22;41504;53.162;6.788;2023-07-31T08:35:57;16.90;99.90
55634;DHT22;41504;53.162;6.788;2023-07-31T08:38:22;16.90;99.90
55634;DHT22;41504;53.162;6.788;2023-07-31T08:40:51;17.00;99.90
55634;DHT22;41504;53.162;6.788;2023-07-31T08:43:16;17.00;99.90
55634;DHT22;41504;53.162;6.788;2023-07-31T08:45:42;17.10;99.90
55634;DHT22;41504;53.162;6.788;2023-07-31T08:48:08;17.20;99.90
55634;DHT22;41504;53.162;6.788;2023-07-31T08:50:35;17.20;99.90
55634;DHT22;41504;53.162;6.788;2023-07-31T08:53:04;17.20;99.90
55634;DHT22;41504;53.162;6.788;2023-07-31T08:55:32;17.20;99.90
55634;DHT22;41504;53.162;6.788;2023-07-31T08:57:58;17.20;99.90
55634;DHT22;41504;53.162;6.788;2023-07-31T09:00:25;17.20;99.90
55634;DHT22;41504;53.162;6.788;2023-07-31T09:03:03;17.30;99.90
55634;DHT22;41504;53.162;6.788;2023-07-31T09:05:32;17.30;99.90
55634;DHT22;41504;53.162;6.788;2023-07-31T09:08:00;17.40;99.90
55634;DHT22;41504;53.162;6.788;2023-07-31T09:10:27;17.40;99.90
55634;DHT22;41504;53.162;6.788;2023-07-31T09:12:53;17.40;99.90
55634;DHT22;41504;53.162;6.788;2023-07-31T09:15:20;17.40;99.90
55634;DHT22;41504;53.162;6.788;2023-07-31T09:17:47;17.40;99.90
55634;DHT22;41504;53.162;6.788;2023-07-31T09:20:17;17.40;99.90
55634;DHT22;41504;53.162;6.788;2023-07-31T09:22:44;17.50;99.90
55634;DHT22;41504;53.162;6.788;2023-07-31T09:25:20;17.50;99.90
55634;DHT22;41504;53.162;6.788;2023-07-31T09:30:19;17.40;99.90
55634;DHT22;41504;53.162;6.788;2023-07-31T09:32:47;17.50;99.90
55634;DHT22;41504;53.162;6.788;2023-07-31T09:35:31;17.50;99.90
55634;DHT22;41504;53.162;6.788;2023-07-31T09:38:06;17.40;99.90
55634;DHT22;41504;53.162;6.788;2023-07-31T09:40:34;17.50;99.90
55634;DHT22;41504;53.162;6.788;2023-07-31T09:43:04;17.50;99.90
55634;DHT22;41504;53.162;6.788;2023-07-31T09:45:35;17.50;99.90
55634;DHT22;41504;53.162;6.788;2023-07-31T09:48:15;17.60;99.90
55634;DHT22;41504;53.162;6.788;2023-07-31T09:50:43;17.50;99.90
55634;DHT22;41504;53.162;6.788;2023-07-31T09:53:10;17.50;99.90
55634;DHT22;41504;53.162;6.788;2023-07-31T09:55:39;17.60;99.90
55634;DHT22;41504;53.162;6.788;2023-07-31T09:58:08;17.60;99.90
55634;DHT22;41504;53.162;6.788;2023-07-31T10:00:34;17.60;99.90
55634;DHT22;41504;53.162;6.788;2023-07-31T10:03:06;17.60;99.90
55634;DHT22;41504;53.162;6.788;2023-07-31T10:08:03;17.80;99.90
55634;DHT22;41504;53.162;6.788;2023-07-31T10:10:29;17.80;99.90
55634;DHT22;41504;53.162;6.788;2023-07-31T10:12:56;17.90;99.90
55634;DHT22;41504;53.162;6.788;2023-07-31T10:15:23;17.90;99.90
55634;DHT22;41504;53.162;6.788;2023-07-31T10:17:49;18.00;99.90
55634;DHT22;41504;53.162;6.788;2023-07-31T10:20:16;18.10;99.90
55634;DHT22;41504;53.162;6.788;2023-07-31T10:22:46;18.20;99.90
55634;DHT22;41504;53.162;6.788;2023-07-31T10:25:12;18.20;99.90
55634;DHT22;41504;53.162;6.788;2023-07-31T10:27:41;18.30;99.90
55634;DHT22;41504;53.162;6.788;2023-07-31T10:30:18;18.40;99.90
55634;DHT22;41504;53.162;6.788;2023-07-31T10:32:47;18.40;99.90
55634;DHT22;41504;53.162;6.788;2023-07-31T10:35:16;18.50;99.90
55634;DHT22;41504;53.162;6.788;2023-07-31T10:37:43;18.40;99.90
55634;DHT22;41504;53.162;6.788;2023-07-31T10:40:16;18.40;99.90
55634;DHT22;41504;53.162;6.788;2023-07-31T10:42:48;18.40;99.90
55634;DHT22;41504;53.162;6.788;2023-07-31T10:45:33;18.30;99.90
55634;DHT22;41504;53.162;6.788;2023-07-31T10:48:19;18.50;99.90
55634;DHT22;41504;53.162;6.788;2023-07-31T10:50:55;18.40;99.90
55634;DHT22;41504;53.162;6.788;2023-07-31T10:53:32;18.30;99.90
55634;DHT22;41504;53.162;6.788;2023-07-31T10:56:04;18.30;99.90
55634;DHT22;41504;53.162;6.788;2023-07-31T10:58:31;18.30;99.90
55634;DHT22;41504;53.162;6.788;2023-07-31T11:01:17;18.30;99.90
55634;DHT22;41504;53.162;6.788;2023-07-31T11:03:48;18.30;99.90
55634;DHT22;41504;53.162;6.788;2023-07-31T11:06:18;18.30;99.90
55634;DHT22;41504;53.162;6.788;2023-07-31T11:08:49;18.30;99.90
55634;DHT22;41504;53.162;6.788;2023-07-31T11:11:18;18.40;99.90
55634;DHT22;41504;53.162;6.788;2023-07-31T11:13:49;18.40;99.90
55634;DHT22;41504;53.162;6.788;2023-07-31T11:16:16;18.50;99.90
55634;DHT22;41504;53.162;6.788;2023-07-31T11:18:43;18.60;99.90
55634;DHT22;41504;53.162;6.788;2023-07-31T11:21:14;18.80;99.90
55634;DHT22;41504;53.162;6.788;2023-07-31T11:23:41;18.80;99.90
55634;DHT22;41504;53.162;6.788;2023-07-31T11:26:10;18.90;99.90
55634;DHT22;41504;53.162;6.788;2023-07-31T11:28:37;18.80;99.90
55634;DHT22;41504;53.162;6.788;2023-07-31T11:31:04;18.80;99.90
55634;DHT22;41504;53.162;6.788;2023-07-31T11:33:30;18.80;99.90
55634;DHT22;41504;53.162;6.788;2023-07-31T11:35:56;18.70;99.90
55634;DHT22;41504;53.162;6.788;2023-07-31T11:38:33;18.70;99.90
55634;DHT22;41504;53.162;6.788;2023-07-31T11:41:01;18.70;99.90
55634;DHT22;41504;53.162;6.788;2023-07-31T11:43:33;18.70;99.90
55634;DHT22;41504;53.162;6.788;2023-07-31T11:46:01;18.80;99.90
55634;DHT22;41504;53.162;6.788;2023-07-31T11:48:33;18.80;99.90
55634;DHT22;41504;53.162;6.788;2023-07-31T11:51:01;18.90;99.90
55634;DHT22;41504;53.162;6.788;2023-07-31T11:53:55;19.00;99.90
55634;DHT22;41504;53.162;6.788;2023-07-31T11:56:22;19.10;99.90
55634;DHT22;41504;53.162;6.788;2023-07-31T11:58:59;19.10;99.90
55634;DHT22;41504;53.162;6.788;2023-07-31T12:01:26;19.20;99.90
55634;DHT22;41504;53.162;6.788;2023-07-31T12:03:53;19.20;99.90
55634;DHT22;41504;53.162;6.788;2023-07-31T12:06:19;19.20;99.90
55634;DHT22;41504;53.162;6.788;2023-07-31T12:08:46;19.20;99.80
55634;DHT22;41504;53.162;6.788;2023-07-31T12:11:12;19.20;99.90
55634;DHT22;41504;53.162;6.788;2023-07-31T12:13:40;19.20;99.90
55634;DHT22;41504;53.162;6.788;2023-07-31T12:16:09;19.30;99.90
55634;DHT22;41504;53.162;6.788;2023-07-31T12:18:39;19.30;99.90
55634;DHT22;41504;53.162;6.788;2023-07-31T12:21:07;19.30;99.80
55634;DHT22;41504;53.162;6.788;2023-07-31T12:23:35;19.30;99.80
55634;DHT22;41504;53.162;6.788;2023-07-31T12:26:17;19.20;99.60
55634;DHT22;41504;53.162;6.788;2023-07-31T12:28:48;19.20;99.60
55634;DHT22;41504;53.162;6.788;2023-07-31T12:31:19;19.10;99.60
55634;DHT22;41504;53.162;6.788;2023-07-31T12:33:50;19.00;99.50
55634;DHT22;41504;53.162;6.788;2023-07-31T12:36:21;18.90;99.60
55634;DHT22;41504;53.162;6.788;2023-07-31T12:38:47;18.80;99.90
55634;DHT22;41504;53.162;6.788;2023-07-31T12:41:13;18.90;99.90
55634;DHT22;41504;53.162;6.788;2023-07-31T12:43:40;19.00;99.90
55634;DHT22;41504;53.162;6.788;2023-07-31T12:46:10;19.00;99.90
55634;DHT22;41504;53.162;6.788;2023-07-31T12:48:37;19.10;99.90
55634;DHT22;41504;53.162;6.788;2023-07-31T12:51:03;19.10;99.90
55634;DHT22;41504;53.162;6.788;2023-07-31T12:53:29;19.10;99.90
55634;DHT22;41504;53.162;6.788;2023-07-31T12:55:56;19.00;99.70
55634;DHT22;41504;53.162;6.788;2023-07-31T12:58:22;18.90;99.70
55634;DHT22;41504;53.162;6.788;2023-07-31T13:00:47;18.90;99.60
55634;DHT22;41504;53.162;6.788;2023-07-31T13:03:16;18.70;99.90
55634;DHT22;41504;53.162;6.788;2023-07-31T13:05:41;18.60;99.90
55634;DHT22;41504;53.162;6.788;2023-07-31T13:08:07;18.60;99.90
55634;DHT22;41504;53.162;6.788;2023-07-31T13:10:33;18.50;99.90
55634;DHT22;41504;53.162;6.788;2023-07-31T13:12:59;18.50;99.90
55634;DHT22;41504;53.162;6.788;2023-07-31T13:15:24;18.50;99.90
55634;DHT22;41504;53.162;6.788;2023-07-31T13:17:50;18.50;99.90
55634;DHT22;41504;53.162;6.788;2023-07-31T13:20:19;18.50;99.90
55634;DHT22;41504;53.162;6.788;2023-07-31T13:22:45;18.50;99.90
55634;DHT22;41504;53.162;6.788;2023-07-31T13:25:11;18.50;99.90
55634;DHT22;41504;53.162;6.788;2023-07-31T13:27:39;18.50;99.90
55634;DHT22;41504;53.162;6.788;2023-07-31T13:30:09;18.50;99.90
55634;DHT22;41504;53.162;6.788;2023-07-31T13:32:34;18.50;99.90
55634;DHT22;41504;53.162;6.788;2023-07-31T13:35:05;18.60;99.90
55634;DHT22;41504;53.162;6.788;2023-07-31T13:37:31;18.60;99.90
55634;DHT22;41504;53.162;6.788;2023-07-31T13:39:57;18.70;99.90
55634;DHT22;41504;53.162;6.788;2023-07-31T13:42:23;18.80;99.90
55634;DHT22;41504;53.162;6.788;2023-07-31T13:44:48;18.90;99.90
55634;DHT22;41504;53.162;6.788;2023-07-31T13:47:14;19.00;99.90
55634;DHT22;41504;53.162;6.788;2023-07-31T13:49:45;19.10;99.90
55634;DHT22;41504;53.162;6.788;2023-07-31T13:52:11;19.10;99.90
55634;DHT22;41504;53.162;6.788;2023-07-31T13:54:40;19.20;99.90
55634;DHT22;41504;53.162;6.788;2023-07-31T13:57:05;19.20;99.90
55634;DHT22;41504;53.162;6.788;2023-07-31T13:59:34;19.20;99.80
55634;DHT22;41504;53.162;6.788;2023-07-31T14:02:02;19.20;99.90
55634;DHT22;41504;53.162;6.788;2023-07-31T14:04:28;19.20;99.70
55634;DHT22;41504;53.162;6.788;2023-07-31T14:06:55;19.20;99.80
55634;DHT22;41504;53.162;6.788;2023-07-31T14:09:21;19.20;99.90
55634;DHT22;41504;53.162;6.788;2023-07-31T14:11:48;19.20;99.90
55634;DHT22;41504;53.162;6.788;2023-07-31T14:14:13;19.20;99.90
55634;DHT22;41504;53.162;6.788;2023-07-31T14:16:39;19.30;99.90
55634;DHT22;41504;53.162;6.788;2023-07-31T14:19:05;19.40;99.90
55634;DHT22;41504;53.162;6.788;2023-07-31T14:21:34;19.30;99.90
55634;DHT22;41504;53.162;6.788;2023-07-31T14:23:59;19.40;99.90
55634;DHT22;41504;53.162;6.788;2023-07-31T14:26:25;19.50;99.90
55634;DHT22;41504;53.162;6.788;2023-07-31T14:28:51;19.50;99.80
55634;DHT22;41504;53.162;6.788;2023-07-31T14:31:16;19.50;99.70
55634;DHT22;41504;53.162;6.788;2023-07-31T14:33:42;19.50;99.70
55634;DHT22;41504;53.162;6.788;2023-07-31T14:36:08;19.50;99.60
55634;DHT22;41504;53.162;6.788;2023-07-31T14:38:34;19.50;99.50
55634;DHT22;41504;53.162;6.788;2023-07-31T14:40:59;19.60;99.40
55634;DHT22;41504;53.162;6.788;2023-07-31T14:43:25;19.50;99.40
55634;DHT22;41504;53.162;6.788;2023-07-31T14:45:51;19.50;99.30
55634;DHT22;41504;53.162;6.788;2023-07-31T14:48:18;19.50;99.20
55634;DHT22;41504;53.162;6.788;2023-07-31T14:50:44;19.50;99.20
55634;DHT22;41504;53.162;6.788;2023-07-31T14:53:10;19.50;98.90
55634;DHT22;41504;53.162;6.788;2023-07-31T14:55:38;19.50;98.90
55634;DHT22;41504;53.162;6.788;2023-07-31T14:58:04;19.50;98.70
55634;DHT22;41504;53.162;6.788;2023-07-31T15:00:30;19.50;98.40
55634;DHT22;41504;53.162;6.788;2023-07-31T15:02:55;19.50;98.40
55634;DHT22;41504;53.162;6.788;2023-07-31T15:05:24;19.50;98.30
55634;DHT22;41504;53.162;6.788;2023-07-31T15:07:50;19.40;98.10
55634;DHT22;41504;53.162;6.788;2023-07-31T15:10:15;19.40;98.10
55634;DHT22;41504;53.162;6.788;2023-07-31T15:12:42;19.40;98.20
55634;DHT22;41504;53.162;6.788;2023-07-31T15:15:08;19.40;97.90
55634;DHT22;41504;53.162;6.788;2023-07-31T15:17:34;19.30;97.80
55634;DHT22;41504;53.162;6.788;2023-07-31T15:20:00;19.30;97.80
55634;DHT22;41504;53.162;6.788;2023-07-31T15:22:26;19.30;97.80
55634;DHT22;41504;53.162;6.788;2023-07-31T15:24:52;19.30;97.90
55634;DHT22;41504;53.162;6.788;2023-07-31T15:27:21;19.30;97.80
55634;DHT22;41504;53.162;6.788;2023-07-31T15:29:46;19.30;97.70
55634;DHT22;41504;53.162;6.788;2023-07-31T15:32:15;19.30;97.70
55634;DHT22;41504;53.162;6.788;2023-07-31T15:34:44;19.30;97.70
55634;DHT22;41504;53.162;6.788;2023-07-31T15:37:13;19.30;97.50
55634;DHT22;41504;53.162;6.788;2023-07-31T15:39:41;19.30;97.60
55634;DHT22;41504;53.162;6.788;2023-07-31T15:42:07;19.20;97.70
55634;DHT22;41504;53.162;6.788;2023-07-31T15:44:34;19.30;97.80